sensor_id;sensor_type;location;lat;lon;timestamp;temperature;humidity
42019;DHT22;27703;51.980;5.848;2022-09-03T00:00:48;20.90;59.00
42019;DHT22;27703;51.980;5.848;2022-09-03T00:03:36;20.90;59.10
42019;DHT22;27703;51.980;5.848;2022-09-03T00:06:15;20.90;59.00
42019;DHT22;27703;51.980;5.848;2022-09-03T00:08:56;20.90;59.20
42019;DHT22;27703;51.980;5.848;2022-09-03T00:11:29;20.90;59.20
42019;DHT22;27703;51.980;5.848;2022-09-03T00:14:56;20.80;59.20
42019;DHT22;27703;51.980;5.848;2022-09-03T00:16:59;20.80;59.40
42019;DHT22;27703;51.980;5.848;2022-09-03T00:19:33;20.70;59.40
42019;DHT22;27703;51.980;5.848;2022-09-03T00:22:26;20.70;59.50
42019;DHT22;27703;51.980;5.848;2022-09-03T00:24:53;20.70;59.60
42019;DHT22;27703;51.980;5.848;2022-09-03T00:27:26;20.60;59.60
42019;DHT22;27703;51.980;5.848;2022-09-03T00:30:04;20.60;59.70
42019;DHT22;27703;51.980;5.848;2022-09-03T00:35:13;20.60;59.80
42019;DHT22;27703;51.980;5.848;2022-09-03T00:37:41;20.50;59.80
42019;DHT22;27703;51.980;5.848;2022-09-03T00:40:14;20.50;59.80
42019;DHT22;27703;51.980;5.848;2022-09-03T00:42:53;20.40;59.90
42019;DHT22;27703;51.980;5.848;2022-09-03T00:48:07;20.40;60.00
42019;DHT22;27703;51.980;5.848;2022-09-03T00:58:54;20.30;60.30
42019;DHT22;27703;51.980;5.848;2022-09-03T01:01:33;20.30;60.30
42019;DHT22;27703;51.980;5.848;2022-09-03T01:06:52;20.20;60.50
42019;DHT22;27703;51.980;5.848;2022-09-03T01:09:41;20.10;60.50
42019;DHT22;27703;51.980;5.848;2022-09-03T01:15:16;20.00;60.60
42019;DHT22;27703;51.980;5.848;2022-09-03T01:18:11;20.10;60.60
42019;DHT22;27703;51.980;5.848;2022-09-03T01:28:41;20.00;60.90
42019;DHT22;27703;51.980;5.848;2022-09-03T01:36:50;19.90;61.10
42019;DHT22;27703;51.980;5.848;2022-09-03T01:39:37;19.90;61.30
42019;DHT22;27703;51.980;5.848;2022-09-03T01:42:19;19.90;61.30
42019;DHT22;27703;51.980;5.848;2022-09-03T01:44:54;19.80;61.50
42019;DHT22;27703;51.980;5.848;2022-09-03T01:47:42;19.70;61.60
42019;DHT22;27703;51.980;5.848;2022-09-03T01:52:55;19.70;61.60
42019;DHT22;27703;51.980;5.848;2022-09-03T01:58:20;19.70;61.60
42019;DHT22;27703;51.980;5.848;2022-09-03T02:00:56;19.70;61.70
42019;DHT22;27703;51.980;5.848;2022-09-03T02:03:25;19.70;61.70
42019;DHT22;27703;51.980;5.848;2022-09-03T02:05:57;19.60;61.70
42019;DHT22;27703;51.980;5.848;2022-09-03T02:08:23;19.60;61.70
42019;DHT22;27703;51.980;5.848;2022-09-03T02:10:54;19.60;61.80
42019;DHT22;27703;51.980;5.848;2022-09-03T02:13:31;19.60;61.80
42019;DHT22;27703;51.980;5.848;2022-09-03T02:16:05;19.60;61.80
42019;DHT22;27703;51.980;5.848;2022-09-03T02:18:36;19.60;61.90
42019;DHT22;27703;51.980;5.848;2022-09-03T02:21:02;19.50;61.90
42019;DHT22;27703;51.980;5.848;2022-09-03T02:23:29;19.50;62.00
42019;DHT22;27703;51.980;5.848;2022-09-03T02:25:58;19.50;62.00
42019;DHT22;27703;51.980;5.848;2022-09-03T02:28:25;19.50;62.00
42019;DHT22;27703;51.980;5.848;2022-09-03T02:30:52;19.50;62.10
42019;DHT22;27703;51.980;5.848;2022-09-03T02:33:17;19.50;62.10
42019;DHT22;27703;51.980;5.848;2022-09-03T02:35:43;19.50;62.10
42019;DHT22;27703;51.980;5.848;2022-09-03T02:38:17;19.40;62.20
42019;DHT22;27703;51.980;5.848;2022-09-03T02:40:44;19.40;62.20
42019;DHT22;27703;51.980;5.848;2022-09-03T02:43:18;19.40;62.40
42019;DHT22;27703;51.980;5.848;2022-09-03T02:45:47;19.40;62.40
42019;DHT22;27703;51.980;5.848;2022-09-03T02:48:17;19.30;62.40
42019;DHT22;27703;51.980;5.848;2022-09-03T02:50:45;19.30;62.50
42019;DHT22;27703;51.980;5.848;2022-09-03T02:53:11;19.30;62.60
42019;DHT22;27703;51.980;5.848;2022-09-03T02:55:36;19.30;62.70
42019;DHT22;27703;51.980;5.848;2022-09-03T02:58:02;19.30;62.60
42019;DHT22;27703;51.980;5.848;2022-09-03T03:00:31;19.20;62.70
42019;DHT22;27703;51.980;5.848;2022-09-03T03:02:58;19.20;62.80
42019;DHT22;27703;51.980;5.848;2022-09-03T03:08:08;19.10;62.80
42019;DHT22;27703;51.980;5.848;2022-09-03T03:10:33;19.10;63.00
42019;DHT22;27703;51.980;5.848;2022-09-03T03:12:59;19.10;63.10
42019;DHT22;27703;51.980;5.848;2022-09-03T03:15:25;19.10;63.20
42019;DHT22;27703;51.980;5.848;2022-09-03T03:17:55;19.10;63.20
42019;DHT22;27703;51.980;5.848;2022-09-03T03:20:20;19.10;63.30
42019;DHT22;27703;51.980;5.848;2022-09-03T03:22:46;19.10;63.40
42019;DHT22;27703;51.980;5.848;2022-09-03T03:25:11;19.00;63.40
42019;DHT22;27703;51.980;5.848;2022-09-03T03:27:37;19.00;63.40
42019;DHT22;27703;51.980;5.848;2022-09-03T03:30:07;18.90;63.50
42019;DHT22;27703;51.980;5.848;2022-09-03T03:32:34;18.90;63.60
42019;DHT22;27703;51.980;5.848;2022-09-03T03:35:00;18.90;63.60
42019;DHT22;27703;51.980;5.848;2022-09-03T03:37:25;18.90;63.60
42019;DHT22;27703;51.980;5.848;2022-09-03T03:39:51;18.80;63.60
42019;DHT22;27703;51.980;5.848;2022-09-03T03:42:16;18.80;63.60
42019;DHT22;27703;51.980;5.848;2022-09-03T03:44:42;18.80;63.60
42019;DHT22;27703;51.980;5.848;2022-09-03T03:47:08;18.80;63.60
42019;DHT22;27703;51.980;5.848;2022-09-03T03:49:34;18.80;64.00
42019;DHT22;27703;51.980;5.848;2022-09-03T03:51:59;18.80;63.90
42019;DHT22;27703;51.980;5.848;2022-09-03T03:54:27;18.80;64.00
42019;DHT22;27703;51.980;5.848;2022-09-03T03:56:52;18.80;63.90
42019;DHT22;27703;51.980;5.848;2022-09-03T03:59:18;18.80;64.00
42019;DHT22;27703;51.980;5.848;2022-09-03T04:01:43;18.80;64.00
42019;DHT22;27703;51.980;5.848;2022-09-03T04:04:09;18.70;64.00
42019;DHT22;27703;51.980;5.848;2022-09-03T04:06:35;18.70;64.20
42019;DHT22;27703;51.980;5.848;2022-09-03T04:09:00;18.70;64.10
42019;DHT22;27703;51.980;5.848;2022-09-03T04:11:26;18.70;64.00
42019;DHT22;27703;51.980;5.848;2022-09-03T04:13:52;18.60;64.00
42019;DHT22;27703;51.980;5.848;2022-09-03T04:16:20;18.70;64.00
42019;DHT22;27703;51.980;5.848;2022-09-03T04:18:46;18.60;64.00
42019;DHT22;27703;51.980;5.848;2022-09-03T04:21:19;18.60;64.00
42019;DHT22;27703;51.980;5.848;2022-09-03T04:23:46;18.50;64.00
42019;DHT22;27703;51.980;5.848;2022-09-03T04:26:14;18.60;64.00
42019;DHT22;27703;51.980;5.848;2022-09-03T04:28:40;18.60;64.10
42019;DHT22;27703;51.980;5.848;2022-09-03T04:31:10;18.50;64.10
42019;DHT22;27703;51.980;5.848;2022-09-03T04:33:37;18.50;64.20
42019;DHT22;27703;51.980;5.848;2022-09-03T04:36:19;18.50;64.20
42019;DHT22;27703;51.980;5.848;2022-09-03T04:38:47;18.50;64.20
42019;DHT22;27703;51.980;5.848;2022-09-03T04:41:15;18.50;64.20
42019;DHT22;27703;51.980;5.848;2022-09-03T04:43:41;18.40;64.20
42019;DHT22;27703;51.980;5.848;2022-09-03T04:46:08;18.40;64.10
42019;DHT22;27703;51.980;5.848;2022-09-03T04:48:35;18.40;64.20
42019;DHT22;27703;51.980;5.848;2022-09-03T04:51:04;18.40;64.30
42019;DHT22;27703;51.980;5.848;2022-09-03T04:53:32;18.40;64.30
42019;DHT22;27703;51.980;5.848;2022-09-03T04:55:58;18.40;64.30
42019;DHT22;27703;51.980;5.848;2022-09-03T04:58:23;18.40;64.40
42019;DHT22;27703;51.980;5.848;2022-09-03T05:00:49;18.40;64.40
42019;DHT22;27703;51.980;5.848;2022-09-03T05:03:14;18.30;64.40
42019;DHT22;27703;51.980;5.848;2022-09-03T05:05:40;18.30;64.50
42019;DHT22;27703;51.980;5.848;2022-09-03T05:08:05;18.30;64.50
42019;DHT22;27703;51.980;5.848;2022-09-03T05:10:31;18.30;64.50
42019;DHT22;27703;51.980;5.848;2022-09-03T05:13:01;18.30;64.50
42019;DHT22;27703;51.980;5.848;2022-09-03T05:15:27;18.30;64.50
42019;DHT22;27703;51.980;5.848;2022-09-03T05:17:57;18.20;64.40
42019;DHT22;27703;51.980;5.848;2022-09-03T05:20:24;18.30;64.50
42019;DHT22;27703;51.980;5.848;2022-09-03T05:22:50;18.20;64.50
42019;DHT22;27703;51.980;5.848;2022-09-03T05:25:16;18.20;64.60
42019;DHT22;27703;51.980;5.848;2022-09-03T05:27:42;18.20;64.60
42019;DHT22;27703;51.980;5.848;2022-09-03T05:30:07;18.20;64.50
42019;DHT22;27703;51.980;5.848;2022-09-03T05:32:33;18.20;64.50
42019;DHT22;27703;51.980;5.848;2022-09-03T05:34:59;18.20;64.50
42019;DHT22;27703;51.980;5.848;2022-09-03T05:37:24;18.20;64.60
42019;DHT22;27703;51.980;5.848;2022-09-03T05:39:50;18.10;64.70
42019;DHT22;27703;51.980;5.848;2022-09-03T05:42:16;18.20;64.80
42019;DHT22;27703;51.980;5.848;2022-09-03T05:44:41;18.10;64.70
42019;DHT22;27703;51.980;5.848;2022-09-03T05:47:08;18.10;64.60
42019;DHT22;27703;51.980;5.848;2022-09-03T05:49:34;18.20;64.70
42019;DHT22;27703;51.980;5.848;2022-09-03T05:51:59;18.10;64.70
42019;DHT22;27703;51.980;5.848;2022-09-03T05:54:25;18.20;64.70
42019;DHT22;27703;51.980;5.848;2022-09-03T05:56:50;18.20;64.80
42019;DHT22;27703;51.980;5.848;2022-09-03T05:59:16;18.20;64.80
42019;DHT22;27703;51.980;5.848;2022-09-03T06:01:43;18.20;64.90
42019;DHT22;27703;51.980;5.848;2022-09-03T06:04:11;18.20;64.90
42019;DHT22;27703;51.980;5.848;2022-09-03T06:06:40;18.20;64.90
42019;DHT22;27703;51.980;5.848;2022-09-03T06:09:11;18.20;65.00
42019;DHT22;27703;51.980;5.848;2022-09-03T06:11:38;18.30;65.00
42019;DHT22;27703;51.980;5.848;2022-09-03T06:14:06;18.20;64.90
42019;DHT22;27703;51.980;5.848;2022-09-03T06:16:34;18.30;65.00
42019;DHT22;27703;51.980;5.848;2022-09-03T06:19:00;18.30;65.10
42019;DHT22;27703;51.980;5.848;2022-09-03T06:21:26;18.30;65.10
42019;DHT22;27703;51.980;5.848;2022-09-03T06:23:53;18.30;65.20
42019;DHT22;27703;51.980;5.848;2022-09-03T06:26:22;18.30;65.20
42019;DHT22;27703;51.980;5.848;2022-09-03T06:28:48;18.30;65.20
42019;DHT22;27703;51.980;5.848;2022-09-03T06:31:18;18.30;65.20
42019;DHT22;27703;51.980;5.848;2022-09-03T06:33:44;18.40;65.20
42019;DHT22;27703;51.980;5.848;2022-09-03T06:36:13;18.40;65.10
42019;DHT22;27703;51.980;5.848;2022-09-03T06:38:39;18.50;65.10
42019;DHT22;27703;51.980;5.848;2022-09-03T06:41:08;18.50;65.00
42019;DHT22;27703;51.980;5.848;2022-09-03T06:43:36;18.50;65.00
42019;DHT22;27703;51.980;5.848;2022-09-03T06:46:08;18.50;65.00
42019;DHT22;27703;51.980;5.848;2022-09-03T06:48:34;18.60;65.00
42019;DHT22;27703;51.980;5.848;2022-09-03T06:51:02;18.70;64.90
42019;DHT22;27703;51.980;5.848;2022-09-03T06:53:31;18.70;64.90
42019;DHT22;27703;51.980;5.848;2022-09-03T06:55:59;18.80;64.90
42019;DHT22;27703;51.980;5.848;2022-09-03T06:58:43;18.90;64.80
42019;DHT22;27703;51.980;5.848;2022-09-03T07:01:23;18.90;64.60
42019;DHT22;27703;51.980;5.848;2022-09-03T07:03:54;19.00;64.60
42019;DHT22;27703;51.980;5.848;2022-09-03T07:06:21;19.00;64.40
42019;DHT22;27703;51.980;5.848;2022-09-03T07:08:47;19.10;64.40
42019;DHT22;27703;51.980;5.848;2022-09-03T07:11:15;19.20;64.30
42019;DHT22;27703;51.980;5.848;2022-09-03T07:13:44;19.30;64.20
42019;DHT22;27703;51.980;5.848;2022-09-03T07:16:12;19.30;64.10
42019;DHT22;27703;51.980;5.848;2022-09-03T07:18:38;19.40;64.00
42019;DHT22;27703;51.980;5.848;2022-09-03T07:21:10;19.50;64.00
42019;DHT22;27703;51.980;5.848;2022-09-03T07:23:37;19.50;63.90
42019;DHT22;27703;51.980;5.848;2022-09-03T07:26:06;19.50;63.80
42019;DHT22;27703;51.980;5.848;2022-09-03T07:28:36;19.60;63.70
42019;DHT22;27703;51.980;5.848;2022-09-03T07:31:08;19.70;63.60
42019;DHT22;27703;51.980;5.848;2022-09-03T07:33:34;19.80;63.60
42019;DHT22;27703;51.980;5.848;2022-09-03T07:36:05;19.90;63.60
42019;DHT22;27703;51.980;5.848;2022-09-03T07:38:33;19.90;63.50
42019;DHT22;27703;51.980;5.848;2022-09-03T07:41:00;20.00;63.40
42019;DHT22;27703;51.980;5.848;2022-09-03T07:43:27;20.10;63.40
42019;DHT22;27703;51.980;5.848;2022-09-03T07:45:54;20.10;63.30
42019;DHT22;27703;51.980;5.848;2022-09-03T07:48:22;20.20;63.20
42019;DHT22;27703;51.980;5.848;2022-09-03T07:50:48;20.30;63.20
42019;DHT22;27703;51.980;5.848;2022-09-03T07:53:17;20.30;63.00
42019;DHT22;27703;51.980;5.848;2022-09-03T07:55:45;20.30;62.90
42019;DHT22;27703;51.980;5.848;2022-09-03T07:58:11;20.50;62.90
42019;DHT22;27703;51.980;5.848;2022-09-03T08:00:38;20.60;62.80
42019;DHT22;27703;51.980;5.848;2022-09-03T08:03:04;20.70;62.70
42019;DHT22;27703;51.980;5.848;2022-09-03T08:05:33;20.80;62.60
42019;DHT22;27703;51.980;5.848;2022-09-03T08:07:59;20.90;62.40
42019;DHT22;27703;51.980;5.848;2022-09-03T08:10:26;21.00;62.20
42019;DHT22;27703;51.980;5.848;2022-09-03T08:12:55;21.10;62.10
42019;DHT22;27703;51.980;5.848;2022-09-03T08:15:20;21.20;62.00
42019;DHT22;27703;51.980;5.848;2022-09-03T08:17:46;21.30;61.80
42019;DHT22;27703;51.980;5.848;2022-09-03T08:20:11;21.40;61.60
42019;DHT22;27703;51.980;5.848;2022-09-03T08:22:37;21.50;61.50
42019;DHT22;27703;51.980;5.848;2022-09-03T08:25:03;21.60;61.30
42019;DHT22;27703;51.980;5.848;2022-09-03T08:27:30;21.60;61.20
42019;DHT22;27703;51.980;5.848;2022-09-03T08:29:55;21.60;61.00
42019;DHT22;27703;51.980;5.848;2022-09-03T08:32:21;21.70;61.00
42019;DHT22;27703;51.980;5.848;2022-09-03T08:34:47;21.70;60.50
42019;DHT22;27703;51.980;5.848;2022-09-03T08:37:12;21.70;60.50
42019;DHT22;27703;51.980;5.848;2022-09-03T08:39:38;21.80;60.50
42019;DHT22;27703;51.980;5.848;2022-09-03T08:42:18;22.00;60.40
42019;DHT22;27703;51.980;5.848;2022-09-03T08:44:54;22.10;60.10
42019;DHT22;27703;51.980;5.848;2022-09-03T08:50:32;22.20;59.70
42019;DHT22;27703;51.980;5.848;2022-09-03T08:55:58;22.40;59.30
42019;DHT22;27703;51.980;5.848;2022-09-03T08:58:25;22.40;59.10
42019;DHT22;27703;51.980;5.848;2022-09-03T09:00:59;22.50;59.00
42019;DHT22;27703;51.980;5.848;2022-09-03T09:03:52;22.60;59.00
42019;DHT22;27703;51.980;5.848;2022-09-03T09:14:49;23.10;58.20
42019;DHT22;27703;51.980;5.848;2022-09-03T09:22:59;23.50;57.80
42019;DHT22;27703;51.980;5.848;2022-09-03T09:25:25;23.50;57.50
42019;DHT22;27703;51.980;5.848;2022-09-03T09:30:20;23.60;57.50
42019;DHT22;27703;51.980;5.848;2022-09-03T09:32:45;23.70;57.50
42019;DHT22;27703;51.980;5.848;2022-09-03T09:35:12;23.80;57.10
42019;DHT22;27703;51.980;5.848;2022-09-03T09:37:57;23.80;56.90
42019;DHT22;27703;51.980;5.848;2022-09-03T09:40:31;23.80;56.80
42019;DHT22;27703;51.980;5.848;2022-09-03T09:43:18;23.90;56.70
42019;DHT22;27703;51.980;5.848;2022-09-03T09:45:50;24.00;56.40
42019;DHT22;27703;51.980;5.848;2022-09-03T09:48:29;24.10;56.40
42019;DHT22;27703;51.980;5.848;2022-09-03T09:51:12;24.10;56.20
42019;DHT22;27703;51.980;5.848;2022-09-03T09:53:39;24.20;56.20
42019;DHT22;27703;51.980;5.848;2022-09-03T09:56:05;24.30;56.10
42019;DHT22;27703;51.980;5.848;2022-09-03T09:58:33;24.40;55.70
42019;DHT22;27703;51.980;5.848;2022-09-03T10:01:09;24.40;55.60
42019;DHT22;27703;51.980;5.848;2022-09-03T10:03:47;24.50;55.70
42019;DHT22;27703;51.980;5.848;2022-09-03T10:06:14;24.60;55.50
42019;DHT22;27703;51.980;5.848;2022-09-03T10:09:11;24.60;55.40
42019;DHT22;27703;51.980;5.848;2022-09-03T10:11:40;24.70;55.40
42019;DHT22;27703;51.980;5.848;2022-09-03T10:14:33;24.80;55.40
42019;DHT22;27703;51.980;5.848;2022-09-03T10:23:00;25.10;54.70
42019;DHT22;27703;51.980;5.848;2022-09-03T10:28:05;25.20;54.70
42019;DHT22;27703;51.980;5.848;2022-09-03T10:30:51;25.40;54.70
42019;DHT22;27703;51.980;5.848;2022-09-03T10:33:26;25.40;54.20
42019;DHT22;27703;51.980;5.848;2022-09-03T10:36:08;25.50;54.10
42019;DHT22;27703;51.980;5.848;2022-09-03T10:38:37;25.60;54.10
42019;DHT22;27703;51.980;5.848;2022-09-03T10:44:20;25.70;54.20
42019;DHT22;27703;51.980;5.848;2022-09-03T10:49:46;25.80;53.70
42019;DHT22;27703;51.980;5.848;2022-09-03T10:52:57;25.90;53.70
42019;DHT22;27703;51.980;5.848;2022-09-03T10:58:39;26.00;53.20
42019;DHT22;27703;51.980;5.848;2022-09-03T11:09:19;26.40;52.60
42019;DHT22;27703;51.980;5.848;2022-09-03T11:12:10;26.40;52.30
42019;DHT22;27703;51.980;5.848;2022-09-03T11:14:50;26.40;52.10
42019;DHT22;27703;51.980;5.848;2022-09-03T11:17:28;26.40;52.20
42019;DHT22;27703;51.980;5.848;2022-09-03T11:20:23;26.60;52.70
42019;DHT22;27703;51.980;5.848;2022-09-03T11:22:52;26.60;52.20
42019;DHT22;27703;51.980;5.848;2022-09-03T11:25:20;26.70;52.50
42019;DHT22;27703;51.980;5.848;2022-09-03T11:28:12;26.70;52.40
42019;DHT22;27703;51.980;5.848;2022-09-03T11:30:57;26.80;52.10
42019;DHT22;27703;51.980;5.848;2022-09-03T11:33:27;26.90;52.10
42019;DHT22;27703;51.980;5.848;2022-09-03T11:35:56;26.90;51.90
42019;DHT22;27703;51.980;5.848;2022-09-03T11:38:22;27.00;51.90
42019;DHT22;27703;51.980;5.848;2022-09-03T11:41:00;27.00;51.70
42019;DHT22;27703;51.980;5.848;2022-09-03T11:43:29;27.10;51.90
42019;DHT22;27703;51.980;5.848;2022-09-03T11:46:25;27.20;51.70
42019;DHT22;27703;51.980;5.848;2022-09-03T11:49:09;27.20;51.50
42019;DHT22;27703;51.980;5.848;2022-09-03T11:51:36;27.20;51.50
42019;DHT22;27703;51.980;5.848;2022-09-03T11:56:45;27.40;51.60
42019;DHT22;27703;51.980;5.848;2022-09-03T11:59:25;27.50;51.00
42019;DHT22;27703;51.980;5.848;2022-09-03T12:02:30;27.50;51.10
42019;DHT22;27703;51.980;5.848;2022-09-03T12:08:02;27.60;51.00
42019;DHT22;27703;51.980;5.848;2022-09-03T12:10:43;27.80;51.20
42019;DHT22;27703;51.980;5.848;2022-09-03T12:19:03;28.10;51.10
42019;DHT22;27703;51.980;5.848;2022-09-03T12:21:37;28.20;51.10
42019;DHT22;27703;51.980;5.848;2022-09-03T12:24:04;28.20;50.90
42019;DHT22;27703;51.980;5.848;2022-09-03T12:26:38;28.20;50.60
42019;DHT22;27703;51.980;5.848;2022-09-03T12:29:05;28.20;50.40
42019;DHT22;27703;51.980;5.848;2022-09-03T12:31:41;28.10;50.30
42019;DHT22;27703;51.980;5.848;2022-09-03T12:34:14;28.20;50.50
42019;DHT22;27703;51.980;5.848;2022-09-03T12:36:46;28.30;50.70
42019;DHT22;27703;51.980;5.848;2022-09-03T12:39:23;28.40;50.60
42019;DHT22;27703;51.980;5.848;2022-09-03T12:42:06;28.40;50.10
42019;DHT22;27703;51.980;5.848;2022-09-03T12:47:12;28.40;50.00
42019;DHT22;27703;51.980;5.848;2022-09-03T12:49:42;28.50;50.20
42019;DHT22;27703;51.980;5.848;2022-09-03T12:54:56;28.50;50.00
42019;DHT22;27703;51.980;5.848;2022-09-03T12:57:32;28.50;50.00
42019;DHT22;27703;51.980;5.848;2022-09-03T13:00:03;28.50;50.20
42019;DHT22;27703;51.980;5.848;2022-09-03T13:05:04;28.50;50.20
42019;DHT22;27703;51.980;5.848;2022-09-03T13:07:33;28.50;50.30
42019;DHT22;27703;51.980;5.848;2022-09-03T13:10:06;28.50;50.10
42019;DHT22;27703;51.980;5.848;2022-09-03T13:12:45;28.60;50.20
42019;DHT22;27703;51.980;5.848;2022-09-03T13:15:32;28.70;50.20
42019;DHT22;27703;51.980;5.848;2022-09-03T13:24:36;29.10;50.20
42019;DHT22;27703;51.980;5.848;2022-09-03T13:27:31;29.00;50.00
42019;DHT22;27703;51.980;5.848;2022-09-03T13:30:13;29.00;50.20
42019;DHT22;27703;51.980;5.848;2022-09-03T13:32:52;29.00;50.20
42019;DHT22;27703;51.980;5.848;2022-09-03T13:38:07;29.30;50.30
42019;DHT22;27703;51.980;5.848;2022-09-03T13:40:59;29.30;49.90
42019;DHT22;27703;51.980;5.848;2022-09-03T13:46:11;29.40;50.10
42019;DHT22;27703;51.980;5.848;2022-09-03T13:48:43;29.40;50.00
42019;DHT22;27703;51.980;5.848;2022-09-03T13:51:46;29.50;50.10
42019;DHT22;27703;51.980;5.848;2022-09-03T13:54:22;29.40;49.80
42019;DHT22;27703;51.980;5.848;2022-09-03T13:56:56;29.40;50.00
42019;DHT22;27703;51.980;5.848;2022-09-03T14:08:11;29.40;50.30
42019;DHT22;27703;51.980;5.848;2022-09-03T14:16:33;29.60;49.40
42019;DHT22;27703;51.980;5.848;2022-09-03T14:19:04;29.60;49.50
42019;DHT22;27703;51.980;5.848;2022-09-03T14:26:34;29.60;49.30
42019;DHT22;27703;51.980;5.848;2022-09-03T14:34:54;29.70;49.20
42019;DHT22;27703;51.980;5.848;2022-09-03T14:37:54;29.80;49.10
42019;DHT22;27703;51.980;5.848;2022-09-03T14:40:29;29.70;49.00
42019;DHT22;27703;51.980;5.848;2022-09-03T14:56:39;30.10;48.90
42019;DHT22;27703;51.980;5.848;2022-09-03T15:05:02;30.20;48.70
42019;DHT22;27703;51.980;5.848;2022-09-03T15:10:31;30.10;48.40
42019;DHT22;27703;51.980;5.848;2022-09-03T15:13:10;30.10;48.50
42019;DHT22;27703;51.980;5.848;2022-09-03T15:18:24;30.00;48.30
42019;DHT22;27703;51.980;5.848;2022-09-03T15:20:53;30.10;48.40
42019;DHT22;27703;51.980;5.848;2022-09-03T15:31:46;30.30;48.50
42019;DHT22;27703;51.980;5.848;2022-09-03T15:36:50;30.40;48.40
42019;DHT22;27703;51.980;5.848;2022-09-03T15:39:24;30.40;48.40
42019;DHT22;27703;51.980;5.848;2022-09-03T15:42:00;30.20;48.20
42019;DHT22;27703;51.980;5.848;2022-09-03T15:44:55;30.20;48.20
42019;DHT22;27703;51.980;5.848;2022-09-03T15:50:36;30.10;48.40
42019;DHT22;27703;51.980;5.848;2022-09-03T15:53:14;30.10;48.50
42019;DHT22;27703;51.980;5.848;2022-09-03T15:55:47;30.00;48.20
42019;DHT22;27703;51.980;5.848;2022-09-03T15:58:35;30.00;48.50
42019;DHT22;27703;51.980;5.848;2022-09-03T16:04:01;29.80;48.40
42019;DHT22;27703;51.980;5.848;2022-09-03T16:14:53;29.90;48.60
42019;DHT22;27703;51.980;5.848;2022-09-03T16:17:31;29.80;48.60
42019;DHT22;27703;51.980;5.848;2022-09-03T16:20:06;29.80;48.70
42019;DHT22;27703;51.980;5.848;2022-09-03T16:22:38;29.80;48.70
42019;DHT22;27703;51.980;5.848;2022-09-03T16:25:30;29.80;48.70
42019;DHT22;27703;51.980;5.848;2022-09-03T16:28:31;29.80;48.80
42019;DHT22;27703;51.980;5.848;2022-09-03T16:31:17;29.80;48.80
42019;DHT22;27703;51.980;5.848;2022-09-03T16:33:57;29.60;48.70
42019;DHT22;27703;51.980;5.848;2022-09-03T16:36:45;29.50;48.80
42019;DHT22;27703;51.980;5.848;2022-09-03T16:39:45;29.50;49.00
42019;DHT22;27703;51.980;5.848;2022-09-03T16:42:57;29.40;49.10
42019;DHT22;27703;51.980;5.848;2022-09-03T16:45:24;29.30;49.20
42019;DHT22;27703;51.980;5.848;2022-09-03T16:48:23;29.20;49.20
42019;DHT22;27703;51.980;5.848;2022-09-03T17:02:07;29.10;49.20
42019;DHT22;27703;51.980;5.848;2022-09-03T17:04:44;29.10;49.30
42019;DHT22;27703;51.980;5.848;2022-09-03T17:09:55;29.20;49.50
42019;DHT22;27703;51.980;5.848;2022-09-03T17:12:42;29.20;49.50
42019;DHT22;27703;51.980;5.848;2022-09-03T17:18:02;30.00;49.20
42019;DHT22;27703;51.980;5.848;2022-09-03T17:20:51;30.40;49.10
42019;DHT22;27703;51.980;5.848;2022-09-03T17:23:47;30.80;48.90
42019;DHT22;27703;51.980;5.848;2022-09-03T17:26:40;31.00;48.80
42019;DHT22;27703;51.980;5.848;2022-09-03T17:29:34;31.10;48.80
42019;DHT22;27703;51.980;5.848;2022-09-03T17:37:42;30.90;49.40
42019;DHT22;27703;51.980;5.848;2022-09-03T17:40:20;30.30;50.00
42019;DHT22;27703;51.980;5.848;2022-09-03T17:43:12;29.60;50.70
42019;DHT22;27703;51.980;5.848;2022-09-03T17:45:58;29.10;51.30
42019;DHT22;27703;51.980;5.848;2022-09-03T17:56:55;27.90;52.90
42019;DHT22;27703;51.980;5.848;2022-09-03T17:59:42;27.70;53.30
42019;DHT22;27703;51.980;5.848;2022-09-03T18:04:49;27.40;53.80
42019;DHT22;27703;51.980;5.848;2022-09-03T18:10:09;27.10;54.20
42019;DHT22;27703;51.980;5.848;2022-09-03T18:16:05;26.90;54.60
42019;DHT22;27703;51.980;5.848;2022-09-03T18:18:35;26.80;54.80
42019;DHT22;27703;51.980;5.848;2022-09-03T18:21:06;26.70;55.00
42019;DHT22;27703;51.980;5.848;2022-09-03T18:26:55;26.60;55.40
42019;DHT22;27703;51.980;5.848;2022-09-03T18:32:45;26.40;55.80
42019;DHT22;27703;51.980;5.848;2022-09-03T18:35:31;26.40;56.10
42019;DHT22;27703;51.980;5.848;2022-09-03T18:38:29;26.30;56.30
42019;DHT22;27703;51.980;5.848;2022-09-03T18:56:51;25.80;57.80
42019;DHT22;27703;51.980;5.848;2022-09-03T19:08:36;25.30;58.80
42019;DHT22;27703;51.980;5.848;2022-09-03T19:17:22;25.00;59.50
42019;DHT22;27703;51.980;5.848;2022-09-03T19:20:28;24.90;59.80
42019;DHT22;27703;51.980;5.848;2022-09-03T19:23:13;24.80;60.00
42019;DHT22;27703;51.980;5.848;2022-09-03T19:26:03;24.70;60.20
42019;DHT22;27703;51.980;5.848;2022-09-03T19:28:55;24.70;60.40
42019;DHT22;27703;51.980;5.848;2022-09-03T19:31:53;24.70;60.50
42019;DHT22;27703;51.980;5.848;2022-09-03T19:34:53;24.80;60.50
42019;DHT22;27703;51.980;5.848;2022-09-03T19:44:14;24.80;60.40
42019;DHT22;27703;51.980;5.848;2022-09-03T19:47:02;24.80;60.50
42019;DHT22;27703;51.980;5.848;2022-09-03T19:50:19;24.80;60.80
42019;DHT22;27703;51.980;5.848;2022-09-03T19:53:06;24.80;60.80
42019;DHT22;27703;51.980;5.848;2022-09-03T19:56:00;24.70;61.10
42019;DHT22;27703;51.980;5.848;2022-09-03T19:59:04;24.70;61.20
42019;DHT22;27703;51.980;5.848;2022-09-03T20:01:50;24.60;61.40
42019;DHT22;27703;51.980;5.848;2022-09-03T20:04:45;24.50;61.40
42019;DHT22;27703;51.980;5.848;2022-09-03T20:07:31;24.60;61.70
42019;DHT22;27703;51.980;5.848;2022-09-03T20:10:18;24.50;61.80
42019;DHT22;27703;51.980;5.848;2022-09-03T20:13:16;24.40;62.00
42019;DHT22;27703;51.980;5.848;2022-09-03T20:16:24;24.30;62.30
42019;DHT22;27703;51.980;5.848;2022-09-03T20:21:48;24.00;63.00
42019;DHT22;27703;51.980;5.848;2022-09-03T20:29:45;23.60;63.60
42019;DHT22;27703;51.980;5.848;2022-09-03T20:34:54;23.50;64.00
42019;DHT22;27703;51.980;5.848;2022-09-03T20:37:50;23.50;64.10
42019;DHT22;27703;51.980;5.848;2022-09-03T20:40:44;23.50;64.20
42019;DHT22;27703;51.980;5.848;2022-09-03T20:43:37;23.50;64.20
42019;DHT22;27703;51.980;5.848;2022-09-03T20:51:42;23.40;64.70
42019;DHT22;27703;51.980;5.848;2022-09-03T20:54:20;23.20;64.90
42019;DHT22;27703;51.980;5.848;2022-09-03T21:02:28;23.20;65.20
42019;DHT22;27703;51.980;5.848;2022-09-03T21:05:15;23.20;65.20
42019;DHT22;27703;51.980;5.848;2022-09-03T21:18:39;23.00;65.60
42019;DHT22;27703;51.980;5.848;2022-09-03T21:24:10;23.00;65.70
42019;DHT22;27703;51.980;5.848;2022-09-03T21:26:40;23.00;66.40
42019;DHT22;27703;51.980;5.848;2022-09-03T21:29:23;23.00;65.70